Pagrindinis puslapis
METAR-TAF:

METAR-TAF

Oro uostai :

Trangas, Tailandas

platuma: 07-31N, ilguma: 099-37E, Aukštis: 14 m

Dabartinis oras

Ataskaita buvo paskelbta 25 minutes, ne 12:00 UTC
Ramus vėjas
Temperatūra 26°C
Drėgmė 94%
Slėgis 1010 hPa
Matomumas 10 km arba daugiau
Mažai debesys ne aukštis 2000 ft

METAR: VTST 291200Z 00000KT 9999 FEW020 26/25 Q1010 NOSIG

Laikas: 19:25 (12:25 UTC)

Prognozė

Ataskaita buvo paskelbta 1 valandą ir 25 minutes, ne 11:00 UTC
Prognozė galioja nuo 29 metu 12 UTC su 30 metu 12 UTC
Vėjas 8 kt iš Vakarų/Pietvakarių
Matomumas 10 km arba daugiau
Mažai debesys ne aukštis 2500 ft
Tapsmas
nuo 29 metu 15 UTC su 29 metu 17 UTC
Vėjas kt iš Šiaurės
Tapsmas
nuo 29 metu 22 UTC su 29 metu 24 UTC
Matomumas: 3000 m
rūkana
Tapsmas
nuo 30 metu 04 UTC su 30 metu 06 UTC
Vėjas 7 kt iš Vakarų/Pietvakarių
Matomumas 10 km arba daugiau

TAF: VTST 291100Z 2912/3012 24008KT 9999 FEW025 BECMG 2915/2917 00000KT BECMG 2922/2924 3000 BR BECMG 3004/3006 24007KT 9999 NSW

Orai ataskaitas ir orų prognozės (METAR, TAF).

turimą stotys yra geltonos ir raudonos taškus žemėlapyje.

Perkelti pele per norėdami pamatyti stoties vardą.

Tada spustelėkite, norėdami matyti oro stebėjimo ir prognozės.

Norėdami pakeisti žemėlapį: spustelėkite ant žalios mygtukų su juodo kryžiaus žemyn,; žalią mygtuką su brūkšneliu, jei norite nutolinti; arba žalių rodyklių gretimoms žemėlapius.


METAR-TAF: